sensor_id;sensor_type;location;lat;lon;timestamp;P1;durP1;ratioP1;P2;durP2;ratioP2
50531;SDS011;36483;37.396;-122.212;2022-09-12T00:01:15;12.55;;;6.15;;
50531;SDS011;36483;37.396;-122.212;2022-09-12T00:03:44;10.73;;;5.80;;
50531;SDS011;36483;37.396;-122.212;2022-09-12T00:06:21;15.32;;;6.05;;
50531;SDS011;36483;37.396;-122.212;2022-09-12T00:08:49;8.57;;;5.18;;
50531;SDS011;36483;37.396;-122.212;2022-09-12T00:11:16;10.45;;;5.95;;
50531;SDS011;36483;37.396;-122.212;2022-09-12T00:13:42;8.85;;;5.97;;
50531;SDS011;36483;37.396;-122.212;2022-09-12T00:16:18;11.00;;;5.60;;
50531;SDS011;36483;37.396;-122.212;2022-09-12T00:18:46;10.50;;;5.60;;
50531;SDS011;36483;37.396;-122.212;2022-09-12T00:21:12;10.63;;;4.93;;
50531;SDS011;36483;37.396;-122.212;2022-09-12T00:23:39;7.57;;;4.80;;
50531;SDS011;36483;37.396;-122.212;2022-09-12T00:26:05;9.50;;;5.07;;
50531;SDS011;36483;37.396;-122.212;2022-09-12T00:28:33;12.00;;;5.13;;
50531;SDS011;36483;37.396;-122.212;2022-09-12T00:31:02;8.45;;;4.78;;
50531;SDS011;36483;37.396;-122.212;2022-09-12T00:33:33;7.43;;;4.57;;
50531;SDS011;36483;37.396;-122.212;2022-09-12T00:36:02;10.35;;;5.07;;
50531;SDS011;36483;37.396;-122.212;2022-09-12T00:38:32;9.70;;;4.90;;
50531;SDS011;36483;37.396;-122.212;2022-09-12T00:41:05;9.43;;;5.07;;
50531;SDS011;36483;37.396;-122.212;2022-09-12T00:43:43;10.10;;;5.32;;
50531;SDS011;36483;37.396;-122.212;2022-09-12T00:49:13;8.02;;;4.85;;
50531;SDS011;36483;37.396;-122.212;2022-09-12T00:51:57;10.35;;;4.82;;
50531;SDS011;36483;37.396;-122.212;2022-09-12T00:54:33;8.25;;;4.78;;
50531;SDS011;36483;37.396;-122.212;2022-09-12T00:57:21;9.65;;;5.60;;
50531;SDS011;36483;37.396;-122.212;2022-09-12T00:59:52;6.63;;;4.43;;
50531;SDS011;36483;37.396;-122.212;2022-09-12T01:02:24;7.85;;;4.47;;
50531;SDS011;36483;37.396;-122.212;2022-09-12T01:04:50;7.60;;;3.90;;
50531;SDS011;36483;37.396;-122.212;2022-09-12T01:07:18;5.30;;;3.40;;
50531;SDS011;36483;37.396;-122.212;2022-09-12T01:09:44;5.55;;;3.45;;
50531;SDS011;36483;37.396;-122.212;2022-09-12T01:12:11;5.57;;;3.60;;
50531;SDS011;36483;37.396;-122.212;2022-09-12T01:14:39;9.05;;;3.33;;
50531;SDS011;36483;37.396;-122.212;2022-09-12T01:17:05;9.88;;;3.30;;
50531;SDS011;36483;37.396;-122.212;2022-09-12T01:22:08;5.80;;;3.40;;
50531;SDS011;36483;37.396;-122.212;2022-09-12T01:33:33;7.15;;;3.90;;
50531;SDS011;36483;37.396;-122.212;2022-09-12T01:38:55;6.05;;;3.65;;
50531;SDS011;36483;37.396;-122.212;2022-09-12T01:44:04;6.43;;;3.28;;
50531;SDS011;36483;37.396;-122.212;2022-09-12T01:49:26;6.45;;;3.78;;
50531;SDS011;36483;37.396;-122.212;2022-09-12T01:51:58;7.68;;;4.20;;
50531;SDS011;36483;37.396;-122.212;2022-09-12T01:54:41;9.82;;;4.03;;
50531;SDS011;36483;37.396;-122.212;2022-09-12T01:57:22;6.90;;;4.15;;
50531;SDS011;36483;37.396;-122.212;2022-09-12T01:59:53;6.43;;;3.60;;
50531;SDS011;36483;37.396;-122.212;2022-09-12T02:05:08;8.73;;;4.38;;
50531;SDS011;36483;37.396;-122.212;2022-09-12T02:07:44;6.57;;;4.20;;
50531;SDS011;36483;37.396;-122.212;2022-09-12T02:10:33;5.28;;;3.70;;
50531;SDS011;36483;37.396;-122.212;2022-09-12T02:13:08;8.18;;;4.60;;
50531;SDS011;36483;37.396;-122.212;2022-09-12T02:15:39;9.10;;;4.28;;
50531;SDS011;36483;37.396;-122.212;2022-09-12T02:18:15;8.10;;;4.20;;
50531;SDS011;36483;37.396;-122.212;2022-09-12T02:20:42;8.13;;;4.57;;
50531;SDS011;36483;37.396;-122.212;2022-09-12T02:23:11;7.60;;;3.78;;
50531;SDS011;36483;37.396;-122.212;2022-09-12T02:25:41;8.43;;;4.70;;
50531;SDS011;36483;37.396;-122.212;2022-09-12T02:33:52;6.60;;;4.30;;
50531;SDS011;36483;37.396;-122.212;2022-09-12T02:36:31;9.05;;;4.63;;
50531;SDS011;36483;37.396;-122.212;2022-09-12T02:39:16;8.05;;;4.45;;
50531;SDS011;36483;37.396;-122.212;2022-09-12T02:41:45;8.55;;;4.20;;
50531;SDS011;36483;37.396;-122.212;2022-09-12T02:44:12;8.02;;;4.35;;
50531;SDS011;36483;37.396;-122.212;2022-09-12T02:46:40;8.07;;;4.50;;
50531;SDS011;36483;37.396;-122.212;2022-09-12T02:49:11;8.93;;;4.97;;
50531;SDS011;36483;37.396;-122.212;2022-09-12T02:51:38;8.38;;;5.18;;
50531;SDS011;36483;37.396;-122.212;2022-09-12T02:54:04;10.40;;;5.38;;
50531;SDS011;36483;37.396;-122.212;2022-09-12T02:56:31;11.50;;;4.85;;
50531;SDS011;36483;37.396;-122.212;2022-09-12T02:59:00;8.05;;;5.55;;
50531;SDS011;36483;37.396;-122.212;2022-09-12T03:01:32;10.48;;;5.60;;
50531;SDS011;36483;37.396;-122.212;2022-09-12T03:04:28;10.27;;;5.45;;
50531;SDS011;36483;37.396;-122.212;2022-09-12T03:08:14;12.10;;;6.05;;
50531;SDS011;36483;37.396;-122.212;2022-09-12T03:16:27;10.93;;;6.10;;
50531;SDS011;36483;37.396;-122.212;2022-09-12T03:19:22;9.30;;;5.63;;
50531;SDS011;36483;37.396;-122.212;2022-09-12T03:21:57;11.68;;;6.00;;
50531;SDS011;36483;37.396;-122.212;2022-09-12T03:24:43;10.07;;;5.80;;
50531;SDS011;36483;37.396;-122.212;2022-09-12T03:27:47;10.77;;;5.70;;
50531;SDS011;36483;37.396;-122.212;2022-09-12T03:30:24;10.70;;;6.05;;
50531;SDS011;36483;37.396;-122.212;2022-09-12T03:32:52;13.20;;;6.22;;
50531;SDS011;36483;37.396;-122.212;2022-09-12T03:35:21;9.55;;;5.60;;
50531;SDS011;36483;37.396;-122.212;2022-09-12T03:37:48;11.73;;;6.25;;
50531;SDS011;36483;37.396;-122.212;2022-09-12T03:40:15;14.43;;;6.70;;
50531;SDS011;36483;37.396;-122.212;2022-09-12T03:42:41;12.23;;;6.10;;
50531;SDS011;36483;37.396;-122.212;2022-09-12T03:45:08;11.95;;;6.25;;
50531;SDS011;36483;37.396;-122.212;2022-09-12T03:47:35;10.57;;;6.03;;
50531;SDS011;36483;37.396;-122.212;2022-09-12T03:50:01;13.90;;;6.30;;
50531;SDS011;36483;37.396;-122.212;2022-09-12T03:52:27;10.88;;;5.90;;
50531;SDS011;36483;37.396;-122.212;2022-09-12T03:54:53;15.27;;;6.45;;
50531;SDS011;36483;37.396;-122.212;2022-09-12T03:57:19;10.93;;;5.43;;
50531;SDS011;36483;37.396;-122.212;2022-09-12T03:59:47;11.65;;;5.97;;
50531;SDS011;36483;37.396;-122.212;2022-09-12T04:02:14;12.90;;;6.15;;
50531;SDS011;36483;37.396;-122.212;2022-09-12T04:04:40;13.07;;;6.55;;
50531;SDS011;36483;37.396;-122.212;2022-09-12T04:07:08;10.02;;;6.47;;
50531;SDS011;36483;37.396;-122.212;2022-09-12T04:09:37;10.25;;;5.85;;
50531;SDS011;36483;37.396;-122.212;2022-09-12T04:12:03;9.57;;;6.32;;
50531;SDS011;36483;37.396;-122.212;2022-09-12T04:14:29;12.75;;;6.40;;
50531;SDS011;36483;37.396;-122.212;2022-09-12T04:16:55;11.82;;;6.32;;
50531;SDS011;36483;37.396;-122.212;2022-09-12T04:19:21;10.55;;;6.05;;
50531;SDS011;36483;37.396;-122.212;2022-09-12T04:21:47;13.48;;;6.30;;
50531;SDS011;36483;37.396;-122.212;2022-09-12T04:24:13;10.38;;;6.07;;
50531;SDS011;36483;37.396;-122.212;2022-09-12T04:26:40;11.25;;;6.32;;
50531;SDS011;36483;37.396;-122.212;2022-09-12T04:29:06;13.35;;;6.22;;
50531;SDS011;36483;37.396;-122.212;2022-09-12T04:31:52;12.15;;;6.43;;
50531;SDS011;36483;37.396;-122.212;2022-09-12T04:34:18;13.25;;;5.97;;
50531;SDS011;36483;37.396;-122.212;2022-09-12T04:36:44;12.23;;;5.95;;
50531;SDS011;36483;37.396;-122.212;2022-09-12T04:39:10;12.50;;;6.38;;
50531;SDS011;36483;37.396;-122.212;2022-09-12T04:41:37;11.43;;;5.60;;
50531;SDS011;36483;37.396;-122.212;2022-09-12T04:44:06;12.32;;;6.53;;
50531;SDS011;36483;37.396;-122.212;2022-09-12T04:46:36;14.13;;;6.03;;
50531;SDS011;36483;37.396;-122.212;2022-09-12T04:49:04;13.05;;;6.05;;
50531;SDS011;36483;37.396;-122.212;2022-09-12T04:51:34;10.43;;;5.90;;
50531;SDS011;36483;37.396;-122.212;2022-09-12T04:54:03;12.60;;;6.53;;
50531;SDS011;36483;37.396;-122.212;2022-09-12T04:56:30;16.35;;;6.65;;
50531;SDS011;36483;37.396;-122.212;2022-09-12T04:58:59;12.85;;;6.50;;
50531;SDS011;36483;37.396;-122.212;2022-09-12T05:01:26;10.32;;;6.00;;
50531;SDS011;36483;37.396;-122.212;2022-09-12T05:03:53;12.88;;;6.70;;
50531;SDS011;36483;37.396;-122.212;2022-09-12T05:06:20;12.68;;;6.25;;
50531;SDS011;36483;37.396;-122.212;2022-09-12T05:08:48;11.75;;;6.00;;
50531;SDS011;36483;37.396;-122.212;2022-09-12T05:11:16;11.43;;;6.28;;
50531;SDS011;36483;37.396;-122.212;2022-09-12T05:13:44;12.70;;;6.47;;
50531;SDS011;36483;37.396;-122.212;2022-09-12T05:16:10;11.73;;;6.65;;
50531;SDS011;36483;37.396;-122.212;2022-09-12T05:18:39;11.57;;;6.15;;
50531;SDS011;36483;37.396;-122.212;2022-09-12T05:21:07;11.48;;;6.82;;
50531;SDS011;36483;37.396;-122.212;2022-09-12T05:23:35;13.07;;;6.03;;
50531;SDS011;36483;37.396;-122.212;2022-09-12T05:26:02;14.80;;;6.30;;
50531;SDS011;36483;37.396;-122.212;2022-09-12T05:28:33;9.80;;;6.07;;
50531;SDS011;36483;37.396;-122.212;2022-09-12T05:31:14;12.90;;;6.20;;
50531;SDS011;36483;37.396;-122.212;2022-09-12T05:33:42;13.55;;;6.38;;
50531;SDS011;36483;37.396;-122.212;2022-09-12T05:36:09;11.93;;;6.13;;
50531;SDS011;36483;37.396;-122.212;2022-09-12T05:38:39;11.73;;;6.72;;
50531;SDS011;36483;37.396;-122.212;2022-09-12T05:41:07;10.40;;;6.57;;
50531;SDS011;36483;37.396;-122.212;2022-09-12T05:43:34;14.25;;;6.65;;
50531;SDS011;36483;37.396;-122.212;2022-09-12T05:46:03;13.68;;;6.68;;
50531;SDS011;36483;37.396;-122.212;2022-09-12T05:48:33;12.23;;;7.05;;
50531;SDS011;36483;37.396;-122.212;2022-09-12T05:51:05;13.13;;;6.50;;
50531;SDS011;36483;37.396;-122.212;2022-09-12T05:53:43;13.23;;;6.60;;
50531;SDS011;36483;37.396;-122.212;2022-09-12T05:56:14;11.32;;;6.30;;
50531;SDS011;36483;37.396;-122.212;2022-09-12T05:58:43;12.30;;;6.47;;
50531;SDS011;36483;37.396;-122.212;2022-09-12T06:01:12;10.82;;;6.15;;
50531;SDS011;36483;37.396;-122.212;2022-09-12T06:03:59;13.70;;;6.40;;
50531;SDS011;36483;37.396;-122.212;2022-09-12T06:06:27;12.05;;;6.20;;
50531;SDS011;36483;37.396;-122.212;2022-09-12T06:08:58;13.63;;;6.70;;
50531;SDS011;36483;37.396;-122.212;2022-09-12T06:11:26;17.02;;;7.10;;
50531;SDS011;36483;37.396;-122.212;2022-09-12T06:13:54;12.48;;;6.18;;
50531;SDS011;36483;37.396;-122.212;2022-09-12T06:16:22;12.80;;;6.28;;
50531;SDS011;36483;37.396;-122.212;2022-09-12T06:18:54;10.18;;;6.22;;
50531;SDS011;36483;37.396;-122.212;2022-09-12T06:21:22;14.20;;;6.78;;
50531;SDS011;36483;37.396;-122.212;2022-09-12T06:23:49;10.80;;;5.90;;
50531;SDS011;36483;37.396;-122.212;2022-09-12T06:26:16;12.90;;;6.43;;
50531;SDS011;36483;37.396;-122.212;2022-09-12T06:28:45;12.35;;;6.68;;
50531;SDS011;36483;37.396;-122.212;2022-09-12T06:31:16;11.40;;;6.50;;
50531;SDS011;36483;37.396;-122.212;2022-09-12T06:33:45;12.40;;;7.10;;
50531;SDS011;36483;37.396;-122.212;2022-09-12T06:36:14;14.75;;;6.47;;
50531;SDS011;36483;37.396;-122.212;2022-09-12T06:38:41;11.63;;;6.50;;
50531;SDS011;36483;37.396;-122.212;2022-09-12T06:41:09;12.05;;;6.32;;
50531;SDS011;36483;37.396;-122.212;2022-09-12T06:43:36;10.63;;;6.00;;
50531;SDS011;36483;37.396;-122.212;2022-09-12T06:46:03;12.38;;;6.50;;
50531;SDS011;36483;37.396;-122.212;2022-09-12T06:48:30;13.82;;;6.32;;
50531;SDS011;36483;37.396;-122.212;2022-09-12T06:51:00;11.40;;;6.43;;
50531;SDS011;36483;37.396;-122.212;2022-09-12T06:55:57;13.70;;;6.70;;
50531;SDS011;36483;37.396;-122.212;2022-09-12T06:58:25;11.68;;;6.25;;
50531;SDS011;36483;37.396;-122.212;2022-09-12T07:00:52;13.30;;;6.55;;
50531;SDS011;36483;37.396;-122.212;2022-09-12T07:03:21;12.70;;;6.68;;
50531;SDS011;36483;37.396;-122.212;2022-09-12T07:05:47;14.05;;;6.32;;
50531;SDS011;36483;37.396;-122.212;2022-09-12T07:08:13;11.70;;;6.95;;
50531;SDS011;36483;37.396;-122.212;2022-09-12T07:10:39;10.60;;;6.47;;
50531;SDS011;36483;37.396;-122.212;2022-09-12T07:13:06;12.93;;;6.80;;
50531;SDS011;36483;37.396;-122.212;2022-09-12T07:15:33;14.25;;;7.18;;
50531;SDS011;36483;37.396;-122.212;2022-09-12T07:18:01;10.40;;;5.78;;
50531;SDS011;36483;37.396;-122.212;2022-09-12T07:20:27;11.60;;;6.28;;
50531;SDS011;36483;37.396;-122.212;2022-09-12T07:22:53;10.95;;;6.85;;
50531;SDS011;36483;37.396;-122.212;2022-09-12T07:25:20;13.48;;;6.63;;
50531;SDS011;36483;37.396;-122.212;2022-09-12T07:27:46;17.20;;;6.65;;
50531;SDS011;36483;37.396;-122.212;2022-09-12T07:30:12;13.13;;;6.20;;
50531;SDS011;36483;37.396;-122.212;2022-09-12T07:32:38;10.30;;;6.43;;
50531;SDS011;36483;37.396;-122.212;2022-09-12T07:35:04;12.45;;;6.65;;
50531;SDS011;36483;37.396;-122.212;2022-09-12T07:37:30;14.30;;;6.70;;
50531;SDS011;36483;37.396;-122.212;2022-09-12T07:39:56;13.70;;;6.70;;
50531;SDS011;36483;37.396;-122.212;2022-09-12T07:42:23;13.98;;;7.13;;
50531;SDS011;36483;37.396;-122.212;2022-09-12T07:44:50;11.23;;;6.18;;
50531;SDS011;36483;37.396;-122.212;2022-09-12T07:47:17;14.18;;;6.40;;
50531;SDS011;36483;37.396;-122.212;2022-09-12T07:49:43;12.68;;;6.95;;
50531;SDS011;36483;37.396;-122.212;2022-09-12T07:52:09;11.98;;;6.35;;
50531;SDS011;36483;37.396;-122.212;2022-09-12T07:54:35;12.18;;;6.32;;
50531;SDS011;36483;37.396;-122.212;2022-09-12T07:57:01;12.85;;;6.97;;
50531;SDS011;36483;37.396;-122.212;2022-09-12T07:59:27;13.10;;;6.45;;
50531;SDS011;36483;37.396;-122.212;2022-09-12T08:01:53;14.73;;;7.05;;
50531;SDS011;36483;37.396;-122.212;2022-09-12T08:04:20;14.43;;;7.03;;
50531;SDS011;36483;37.396;-122.212;2022-09-12T08:06:46;13.57;;;6.70;;
50531;SDS011;36483;37.396;-122.212;2022-09-12T08:09:12;14.50;;;6.93;;
50531;SDS011;36483;37.396;-122.212;2022-09-12T08:11:41;16.48;;;7.70;;
50531;SDS011;36483;37.396;-122.212;2022-09-12T08:14:08;14.98;;;7.57;;
50531;SDS011;36483;37.396;-122.212;2022-09-12T08:16:34;13.15;;;7.13;;
50531;SDS011;36483;37.396;-122.212;2022-09-12T08:19:02;14.75;;;7.07;;
50531;SDS011;36483;37.396;-122.212;2022-09-12T08:21:29;14.57;;;6.95;;
50531;SDS011;36483;37.396;-122.212;2022-09-12T08:23:58;14.55;;;7.70;;
50531;SDS011;36483;37.396;-122.212;2022-09-12T08:26:26;12.40;;;6.75;;
50531;SDS011;36483;37.396;-122.212;2022-09-12T08:28:52;12.85;;;6.70;;
50531;SDS011;36483;37.396;-122.212;2022-09-12T08:31:19;11.73;;;6.78;;
50531;SDS011;36483;37.396;-122.212;2022-09-12T08:33:47;11.70;;;6.45;;
50531;SDS011;36483;37.396;-122.212;2022-09-12T08:36:22;11.38;;;6.45;;
50531;SDS011;36483;37.396;-122.212;2022-09-12T08:38:50;13.20;;;7.15;;
50531;SDS011;36483;37.396;-122.212;2022-09-12T08:41:48;12.48;;;7.10;;
50531;SDS011;36483;37.396;-122.212;2022-09-12T08:47:08;13.48;;;6.95;;
50531;SDS011;36483;37.396;-122.212;2022-09-12T08:50:01;13.70;;;7.40;;
50531;SDS011;36483;37.396;-122.212;2022-09-12T08:55:20;13.32;;;7.15;;
50531;SDS011;36483;37.396;-122.212;2022-09-12T08:57:48;15.85;;;6.78;;
50531;SDS011;36483;37.396;-122.212;2022-09-12T09:00:16;11.73;;;6.72;;
50531;SDS011;36483;37.396;-122.212;2022-09-12T09:02:53;15.00;;;6.82;;
50531;SDS011;36483;37.396;-122.212;2022-09-12T09:05:49;12.85;;;7.55;;
50531;SDS011;36483;37.396;-122.212;2022-09-12T09:16:30;17.05;;;7.65;;
50531;SDS011;36483;37.396;-122.212;2022-09-12T09:19:10;14.07;;;7.10;;
50531;SDS011;36483;37.396;-122.212;2022-09-12T09:21:44;13.93;;;7.38;;
50531;SDS011;36483;37.396;-122.212;2022-09-12T09:24:18;12.70;;;7.10;;
50531;SDS011;36483;37.396;-122.212;2022-09-12T09:29:33;13.32;;;6.90;;
50531;SDS011;36483;37.396;-122.212;2022-09-12T09:32:03;11.98;;;6.72;;
50531;SDS011;36483;37.396;-122.212;2022-09-12T09:34:42;14.15;;;7.15;;
50531;SDS011;36483;37.396;-122.212;2022-09-12T09:39:51;13.75;;;7.55;;
50531;SDS011;36483;37.396;-122.212;2022-09-12T09:45:00;12.25;;;7.30;;
50531;SDS011;36483;37.396;-122.212;2022-09-12T09:47:35;16.20;;;7.20;;
50531;SDS011;36483;37.396;-122.212;2022-09-12T09:50:01;15.15;;;7.57;;
50531;SDS011;36483;37.396;-122.212;2022-09-12T09:52:28;13.02;;;7.22;;
50531;SDS011;36483;37.396;-122.212;2022-09-12T09:54:58;13.90;;;7.90;;
50531;SDS011;36483;37.396;-122.212;2022-09-12T10:00:20;15.95;;;8.13;;
50531;SDS011;36483;37.396;-122.212;2022-09-12T10:02:57;17.27;;;7.75;;
50531;SDS011;36483;37.396;-122.212;2022-09-12T10:05:25;12.30;;;6.78;;
50531;SDS011;36483;37.396;-122.212;2022-09-12T10:07:52;13.85;;;7.07;;
50531;SDS011;36483;37.396;-122.212;2022-09-12T10:10:19;14.63;;;7.10;;
50531;SDS011;36483;37.396;-122.212;2022-09-12T10:12:48;16.45;;;7.18;;
50531;SDS011;36483;37.396;-122.212;2022-09-12T10:17:53;14.20;;;7.40;;
50531;SDS011;36483;37.396;-122.212;2022-09-12T10:20:40;16.50;;;6.80;;
50531;SDS011;36483;37.396;-122.212;2022-09-12T10:25:47;14.85;;;7.32;;
50531;SDS011;36483;37.396;-122.212;2022-09-12T10:28:31;14.65;;;6.65;;
50531;SDS011;36483;37.396;-122.212;2022-09-12T10:31:13;15.57;;;6.90;;
50531;SDS011;36483;37.396;-122.212;2022-09-12T10:33:47;13.25;;;6.72;;
50531;SDS011;36483;37.396;-122.212;2022-09-12T10:36:17;15.60;;;7.05;;
50531;SDS011;36483;37.396;-122.212;2022-09-12T10:38:51;13.00;;;6.75;;
50531;SDS011;36483;37.396;-122.212;2022-09-12T10:41:21;14.50;;;6.50;;
50531;SDS011;36483;37.396;-122.212;2022-09-12T10:43:48;13.18;;;6.53;;
50531;SDS011;36483;37.396;-122.212;2022-09-12T10:48:41;11.98;;;6.03;;
50531;SDS011;36483;37.396;-122.212;2022-09-12T10:53:50;13.15;;;7.07;;
50531;SDS011;36483;37.396;-122.212;2022-09-12T10:56:17;12.88;;;6.68;;
50531;SDS011;36483;37.396;-122.212;2022-09-12T11:10:23;13.27;;;6.85;;
50531;SDS011;36483;37.396;-122.212;2022-09-12T11:13:21;11.18;;;6.00;;
50531;SDS011;36483;37.396;-122.212;2022-09-12T11:15:55;14.65;;;6.20;;
50531;SDS011;36483;37.396;-122.212;2022-09-12T11:19:09;10.52;;;5.72;;
50531;SDS011;36483;37.396;-122.212;2022-09-12T11:24:48;17.27;;;7.05;;
50531;SDS011;36483;37.396;-122.212;2022-09-12T11:33:43;13.18;;;6.47;;
50531;SDS011;36483;37.396;-122.212;2022-09-12T11:39:11;11.48;;;6.25;;
50531;SDS011;36483;37.396;-122.212;2022-09-12T11:41:42;12.10;;;6.20;;
50531;SDS011;36483;37.396;-122.212;2022-09-12T11:46:48;14.43;;;6.03;;
50531;SDS011;36483;37.396;-122.212;2022-09-12T11:49:30;11.77;;;5.75;;
50531;SDS011;36483;37.396;-122.212;2022-09-12T11:54:40;10.05;;;5.18;;
50531;SDS011;36483;37.396;-122.212;2022-09-12T12:00:06;13.15;;;6.03;;
50531;SDS011;36483;37.396;-122.212;2022-09-12T12:08:05;9.05;;;5.70;;
50531;SDS011;36483;37.396;-122.212;2022-09-12T12:10:41;8.43;;;5.25;;
50531;SDS011;36483;37.396;-122.212;2022-09-12T12:13:32;12.77;;;6.55;;
50531;SDS011;36483;37.396;-122.212;2022-09-12T12:16:05;8.90;;;5.72;;
50531;SDS011;36483;37.396;-122.212;2022-09-12T12:18:36;8.70;;;5.38;;
50531;SDS011;36483;37.396;-122.212;2022-09-12T12:29:10;11.77;;;5.85;;
50531;SDS011;36483;37.396;-122.212;2022-09-12T12:34:39;9.55;;;5.82;;
50531;SDS011;36483;37.396;-122.212;2022-09-12T12:47:43;12.18;;;6.30;;
50531;SDS011;36483;37.396;-122.212;2022-09-12T12:52:50;12.95;;;5.80;;
50531;SDS011;36483;37.396;-122.212;2022-09-12T12:55:29;12.65;;;5.78;;
50531;SDS011;36483;37.396;-122.212;2022-09-12T12:58:04;11.52;;;6.50;;
50531;SDS011;36483;37.396;-122.212;2022-09-12T13:00:32;11.32;;;5.65;;
50531;SDS011;36483;37.396;-122.212;2022-09-12T13:08:09;10.95;;;6.13;;
50531;SDS011;36483;37.396;-122.212;2022-09-12T13:11:00;13.63;;;5.70;;
50531;SDS011;36483;37.396;-122.212;2022-09-12T13:16:03;9.70;;;5.63;;
50531;SDS011;36483;37.396;-122.212;2022-09-12T13:18:42;12.45;;;6.32;;
50531;SDS011;36483;37.396;-122.212;2022-09-12T13:23:40;10.27;;;5.78;;
50531;SDS011;36483;37.396;-122.212;2022-09-12T13:26:11;14.02;;;6.70;;
50531;SDS011;36483;37.396;-122.212;2022-09-12T13:28:39;10.43;;;5.85;;
50531;SDS011;36483;37.396;-122.212;2022-09-12T13:33:51;10.30;;;5.90;;
50531;SDS011;36483;37.396;-122.212;2022-09-12T13:45:20;10.82;;;6.13;;
50531;SDS011;36483;37.396;-122.212;2022-09-12T13:50:06;12.52;;;5.95;;
50531;SDS011;36483;37.396;-122.212;2022-09-12T13:52:34;10.40;;;6.43;;
50531;SDS011;36483;37.396;-122.212;2022-09-12T13:55:07;12.32;;;6.65;;
50531;SDS011;36483;37.396;-122.212;2022-09-12T13:57:43;10.48;;;6.32;;
50531;SDS011;36483;37.396;-122.212;2022-09-12T14:00:14;11.80;;;6.03;;
50531;SDS011;36483;37.396;-122.212;2022-09-12T14:02:44;13.50;;;6.78;;
50531;SDS011;36483;37.396;-122.212;2022-09-12T14:05:12;10.98;;;6.18;;
50531;SDS011;36483;37.396;-122.212;2022-09-12T14:07:57;12.27;;;6.28;;
50531;SDS011;36483;37.396;-122.212;2022-09-12T14:10:36;11.02;;;6.03;;
50531;SDS011;36483;37.396;-122.212;2022-09-12T14:13:04;11.35;;;6.18;;
50531;SDS011;36483;37.396;-122.212;2022-09-12T14:15:35;11.68;;;6.57;;
50531;SDS011;36483;37.396;-122.212;2022-09-12T14:18:03;11.18;;;5.90;;
50531;SDS011;36483;37.396;-122.212;2022-09-12T14:20:31;13.27;;;6.10;;
50531;SDS011;36483;37.396;-122.212;2022-09-12T14:23:14;12.50;;;5.93;;
50531;SDS011;36483;37.396;-122.212;2022-09-12T14:25:45;10.43;;;6.40;;
50531;SDS011;36483;37.396;-122.212;2022-09-12T14:28:13;11.43;;;6.57;;
50531;SDS011;36483;37.396;-122.212;2022-09-12T14:30:56;15.13;;;6.55;;
50531;SDS011;36483;37.396;-122.212;2022-09-12T14:33:23;11.27;;;6.22;;
50531;SDS011;36483;37.396;-122.212;2022-09-12T14:35:49;14.57;;;6.50;;
50531;SDS011;36483;37.396;-122.212;2022-09-12T14:38:42;14.77;;;6.88;;
50531;SDS011;36483;37.396;-122.212;2022-09-12T14:41:10;12.65;;;6.50;;
50531;SDS011;36483;37.396;-122.212;2022-09-12T14:43:39;11.50;;;6.05;;
50531;SDS011;36483;37.396;-122.212;2022-09-12T14:46:16;12.43;;;6.00;;
50531;SDS011;36483;37.396;-122.212;2022-09-12T14:48:49;13.63;;;6.57;;
50531;SDS011;36483;37.396;-122.212;2022-09-12T14:51:38;11.65;;;6.88;;
50531;SDS011;36483;37.396;-122.212;2022-09-12T14:56:54;12.73;;;6.63;;
50531;SDS011;36483;37.396;-122.212;2022-09-12T15:02:10;12.85;;;6.72;;
50531;SDS011;36483;37.396;-122.212;2022-09-12T15:04:37;13.07;;;6.97;;
50531;SDS011;36483;37.396;-122.212;2022-09-12T15:07:40;11.73;;;6.53;;
50531;SDS011;36483;37.396;-122.212;2022-09-12T15:10:02;12.77;;;6.38;;
50531;SDS011;36483;37.396;-122.212;2022-09-12T15:12:50;14.23;;;6.78;;
50531;SDS011;36483;37.396;-122.212;2022-09-12T15:15:44;12.57;;;6.97;;
50531;SDS011;36483;37.396;-122.212;2022-09-12T15:20:39;14.18;;;7.35;;
50531;SDS011;36483;37.396;-122.212;2022-09-12T15:23:11;14.40;;;7.45;;
50531;SDS011;36483;37.396;-122.212;2022-09-12T15:25:47;18.58;;;7.65;;
50531;SDS011;36483;37.396;-122.212;2022-09-12T15:28:17;20.27;;;8.07;;
50531;SDS011;36483;37.396;-122.212;2022-09-12T15:30:45;20.73;;;8.27;;
50531;SDS011;36483;37.396;-122.212;2022-09-12T15:33:15;19.00;;;8.55;;
50531;SDS011;36483;37.396;-122.212;2022-09-12T15:35:42;13.73;;;8.02;;
50531;SDS011;36483;37.396;-122.212;2022-09-12T15:38:09;23.15;;;8.23;;
50531;SDS011;36483;37.396;-122.212;2022-09-12T15:40:35;18.38;;;8.32;;
50531;SDS011;36483;37.396;-122.212;2022-09-12T15:43:01;19.80;;;9.07;;
50531;SDS011;36483;37.396;-122.212;2022-09-12T15:45:29;19.48;;;8.98;;
50531;SDS011;36483;37.396;-122.212;2022-09-12T15:47:56;20.42;;;9.23;;
50531;SDS011;36483;37.396;-122.212;2022-09-12T15:50:23;20.23;;;10.20;;
50531;SDS011;36483;37.396;-122.212;2022-09-12T15:52:49;23.75;;;10.18;;
50531;SDS011;36483;37.396;-122.212;2022-09-12T15:55:16;20.30;;;9.02;;
50531;SDS011;36483;37.396;-122.212;2022-09-12T15:57:50;21.92;;;9.90;;
50531;SDS011;36483;37.396;-122.212;2022-09-12T16:00:16;20.05;;;9.55;;
50531;SDS011;36483;37.396;-122.212;2022-09-12T16:02:44;25.00;;;9.82;;
50531;SDS011;36483;37.396;-122.212;2022-09-12T16:05:15;19.00;;;9.05;;
50531;SDS011;36483;37.396;-122.212;2022-09-12T16:07:43;19.48;;;9.82;;
50531;SDS011;36483;37.396;-122.212;2022-09-12T16:10:14;18.85;;;9.02;;
50531;SDS011;36483;37.396;-122.212;2022-09-12T16:12:41;19.23;;;9.25;;
50531;SDS011;36483;37.396;-122.212;2022-09-12T16:15:11;20.80;;;9.48;;
50531;SDS011;36483;37.396;-122.212;2022-09-12T16:17:39;24.92;;;10.45;;
50531;SDS011;36483;37.396;-122.212;2022-09-12T16:20:06;16.80;;;9.30;;
50531;SDS011;36483;37.396;-122.212;2022-09-12T16:22:32;19.95;;;9.27;;
50531;SDS011;36483;37.396;-122.212;2022-09-12T16:24:58;20.42;;;9.27;;
50531;SDS011;36483;37.396;-122.212;2022-09-12T16:27:24;19.20;;;9.18;;
50531;SDS011;36483;37.396;-122.212;2022-09-12T16:29:50;21.77;;;8.90;;
50531;SDS011;36483;37.396;-122.212;2022-09-12T16:32:17;16.70;;;9.13;;
50531;SDS011;36483;37.396;-122.212;2022-09-12T16:34:43;19.30;;;9.65;;
50531;SDS011;36483;37.396;-122.212;2022-09-12T16:37:09;18.25;;;9.68;;
50531;SDS011;36483;37.396;-122.212;2022-09-12T16:39:35;18.30;;;9.27;;
50531;SDS011;36483;37.396;-122.212;2022-09-12T16:42:01;19.05;;;9.57;;
50531;SDS011;36483;37.396;-122.212;2022-09-12T16:44:27;20.40;;;8.95;;
50531;SDS011;36483;37.396;-122.212;2022-09-12T16:46:53;17.63;;;9.50;;
50531;SDS011;36483;37.396;-122.212;2022-09-12T16:49:19;15.25;;;8.98;;
50531;SDS011;36483;37.396;-122.212;2022-09-12T16:51:46;19.73;;;9.68;;
50531;SDS011;36483;37.396;-122.212;2022-09-12T16:54:12;18.70;;;9.40;;
50531;SDS011;36483;37.396;-122.212;2022-09-12T16:56:40;19.52;;;9.38;;
50531;SDS011;36483;37.396;-122.212;2022-09-12T16:59:06;17.50;;;8.73;;
50531;SDS011;36483;37.396;-122.212;2022-09-12T17:01:36;20.23;;;9.48;;
50531;SDS011;36483;37.396;-122.212;2022-09-12T17:04:02;23.98;;;9.85;;
50531;SDS011;36483;37.396;-122.212;2022-09-12T17:06:29;17.48;;;8.68;;
50531;SDS011;36483;37.396;-122.212;2022-09-12T17:08:57;20.90;;;9.18;;